Home   Weather   Germany   Ennepetal   Past weeks
Flag for Germany

Past Weather in Ennepetal, North Rhine-Westphalia, Germany — Yesterday and Last 2 Weeks

Currently: 61 °F. Clear. (Weather station: Dortmund / Wickede, Germany). See more current weather

Past Weather in Ennepetal — Graph

°F

Ennepetal Temperature Yesterday

Maximum temperature yesterday: 66 °F (at 1:20 pm)
Minimum temperature yesterday: 54 °F (at 6:50 am)
Average temperature yesterday: 59 °F

High & Low Weather Summary for the Past Weeks

 TemperatureHumidityPressure
High66 °F (Feb 21, 3:20 pm)100% (Feb 16, 6:50 am)30.72 "Hg (Feb 16, 6:50 am)
Low5 °F (Feb 12, 6:50 am)22% (Feb 15, 12:20 am)29.71 "Hg (Feb 18, 6:20 pm)
Average43 °F67%30.22 "Hg
* Reported Feb 10 7:20 pm — Feb 25 7:20 pm, Ennepetal. Weather by CustomWeather, © 2021

Note: Actual official high and low records may vary slightly from our data, if they occured in-between our weather recording intervals... More about our weather records

Ennepetal Weather History for the Previous 24 Hours

Scroll right to see more
 ConditionsComfort  
Time TempWeatherWind HumidityBarometerVisibility
7:20 pm
Thu, Feb 25
61 °FClear.No wind55%30.30 "Hg10 mi
6:50 pm61 °FClear.No wind55%30.30 "Hg10 mi
6:20 pm59 °FClear.1 mph59%30.30 "Hg10 mi
5:50 pm61 °FSunny.5 mph55%30.30 "Hg10 mi
5:20 pm63 °FSunny.8 mph52%30.30 "Hg10 mi
4:50 pm63 °FPassing clouds.9 mph52%30.30 "HgN/A
4:20 pm63 °FSunny.8 mph52%30.27 "Hg10 mi
3:50 pm64 °FPassing clouds.9 mph49%30.27 "HgN/A
3:20 pm64 °FSunny.9 mph46%30.30 "Hg10 mi
2:50 pm66 °FPassing clouds.8 mph43%30.30 "HgN/A
2:20 pm64 °FSunny.9 mph46%30.30 "Hg10 mi
1:50 pm64 °FPassing clouds.8 mph49%30.30 "HgN/A
12:50 pm63 °FPassing clouds.9 mph52%30.30 "HgN/A
12:20 pm63 °FPassing clouds.9 mph52%30.33 "HgN/A
11:50 am63 °FSunny.12 mph52%30.33 "Hg10 mi
11:20 am61 °FSunny.12 mph55%30.30 "Hg10 mi
10:50 am61 °FSunny.12 mph55%30.30 "Hg10 mi
10:20 am59 °FSunny.12 mph55%30.30 "Hg10 mi
9:50 am57 °FSunny.12 mph59%30.30 "Hg10 mi
9:20 am55 °FSunny.12 mph63%30.30 "Hg10 mi
8:50 am55 °FSunny.10 mph59%30.30 "Hg10 mi
8:20 am54 °FSunny.12 mph63%30.30 "Hg10 mi
7:50 am54 °FSunny.12 mph63%30.30 "Hg10 mi
7:20 am54 °FClear.12 mph63%30.30 "Hg10 mi
6:50 am52 °FClear.9 mph67%30.27 "Hg10 mi
6:20 am52 °FClear.10 mph72%30.27 "Hg10 mi
5:50 am52 °FClear.8 mph67%30.27 "Hg10 mi
5:20 am52 °FClear.9 mph72%30.27 "Hg10 mi
4:50 am54 °FClear.10 mph67%30.27 "HgN/A
4:20 am52 °FClear.9 mph72%30.27 "HgN/A
3:50 am54 °FClear.10 mph67%30.27 "HgN/A
3:20 am54 °FClear.9 mph72%30.30 "HgN/A
2:50 am54 °FClear.10 mph67%30.30 "HgN/A
2:20 am54 °FClear.9 mph72%30.30 "HgN/A
1:50 am55 °FClear.9 mph67%30.30 "HgN/A
1:20 am57 °FClear.10 mph63%30.33 "HgN/A
12:50 am57 °FClear.9 mph63%30.33 "HgN/A
12:20 am55 °FClear.7 mph67%30.33 "HgN/A
11:50 pm
Wed, Feb 24
54 °FClear.8 mph72%30.33 "HgN/A
11:20 pm57 °FClear.7 mph63%30.33 "HgN/A
10:50 pm57 °FClear.8 mph63%30.33 "HgN/A
10:20 pm59 °FClear.10 mph63%30.33 "Hg10 mi
9:50 pm59 °FClear.10 mph59%30.33 "Hg10 mi
9:20 pm59 °FClear.10 mph59%30.33 "Hg10 mi
8:20 pm59 °FClear.12 mph59%30.33 "Hg10 mi
Weather by CustomWeather, © 2021

See weather overview